Time;durP1;ratioP1;P1;durP2;ratioP2;P2;SDS_P1;SDS_P2;PMS_P1;PMS_P2;Temp;Humidity;BMP_temperature;BMP_pressure;BME280_temperature;BME280_humidity;BME280_pressure;Samples;Min_cycle;Max_cycle;Signal;HPM_P1;HPM_P2
2021/07/24 00:01:14;;;;;;;9.20;6.45;;;19.20;79.40;;;;;;5054153;28;20056;-90
2021/07/24 00:03:40;;;;;;;8.50;6.10;;;19.20;79.70;;;;;;5053998;28;20428;-90
2021/07/24 00:06:06;;;;;;;9.65;6.03;;;19.10;79.80;;;;;;5052494;28;20056;-90
2021/07/24 00:08:32;;;;;;;10.68;6.60;;;19.10;80.10;;;;;;5054025;28;20048;-90
2021/07/24 00:11:07;;;;;;;9.70;6.68;;;19.00;79.90;;;;;;5053695;28;20055;-91
2021/07/24 00:13:38;;;;;;;9.90;6.30;;;19.00;80.00;;;;;;5053128;28;20045;-90
2021/07/24 00:16:04;;;;;;;10.98;6.60;;;19.00;80.20;;;;;;5053353;28;20511;-90
2021/07/24 00:18:30;;;;;;;9.88;6.95;;;18.90;79.90;;;;;;5053540;28;20041;-90
2021/07/24 00:20:56;;;;;;;10.00;6.70;;;18.90;80.30;;;;;;5057312;28;20083;-90
2021/07/24 00:23:22;;;;;;;12.57;6.72;;;18.90;80.40;;;;;;5073637;28;20061;-90
2021/07/24 00:25:48;;;;;;;13.57;6.78;;;18.80;80.50;;;;;;5073643;28;20098;-89
2021/07/24 00:28:13;;;;;;;11.02;7.35;;;18.80;80.50;;;;;;5072605;28;20072;-90
2021/07/24 00:30:41;;;;;;;10.80;7.57;;;18.80;80.60;;;;;;5073513;28;20048;-90
2021/07/24 00:33:07;;;;;;;8.77;6.72;;;18.70;80.60;;;;;;5072681;28;20044;-89
2021/07/24 00:35:33;;;;;;;10.85;6.75;;;18.70;80.80;;;;;;5073006;28;20122;-89
2021/07/24 00:38:01;;;;;;;9.73;6.88;;;18.60;80.80;;;;;;5072901;28;20496;-90
2021/07/24 00:40:29;;;;;;;9.13;6.68;;;18.60;80.90;;;;;;5072826;28;20048;-89
2021/07/24 00:42:57;;;;;;;9.40;7.15;;;18.60;80.70;;;;;;5073708;28;20049;-90
2021/07/24 00:45:25;;;;;;;12.88;7.25;;;18.50;80.80;;;;;;5073578;28;20075;-90
2021/07/24 00:47:58;;;;;;;10.90;7.78;;;18.50;81.10;;;;;;5072520;28;20048;-90
2021/07/24 00:50:24;;;;;;;11.70;7.30;;;18.50;81.00;;;;;;5072573;28;20055;-90
2021/07/24 00:52:52;;;;;;;11.90;7.88;;;18.40;81.40;;;;;;5072813;28;20159;-90
2021/07/24 00:55:18;;;;;;;10.15;7.53;;;18.40;81.60;;;;;;5074254;28;20059;-89
2021/07/24 00:57:48;;;;;;;12.07;7.50;;;18.40;81.50;;;;;;5076693;28;20048;-90
2021/07/24 01:00:14;;;;;;;11.15;7.28;;;18.30;81.40;;;;;;5076805;28;20522;-89
2021/07/24 01:02:40;;;;;;;10.98;7.57;;;18.30;80.90;;;;;;5075880;28;20072;-89
2021/07/24 01:05:07;;;;;;;11.20;7.45;;;18.30;81.30;;;;;;5076411;28;20052;-89
2021/07/24 01:07:38;;;;;;;10.82;7.28;;;18.20;81.60;;;;;;5076972;28;20139;-90
2021/07/24 01:10:05;;;;;;;11.80;8.35;;;18.30;81.80;;;;;;5075883;28;20044;-90
2021/07/24 01:12:32;;;;;;;10.07;7.55;;;18.20;81.80;;;;;;5076853;28;20519;-90
2021/07/24 01:14:58;;;;;;;11.38;8.20;;;18.20;81.90;;;;;;5076540;28;20044;-89
2021/07/24 01:17:24;;;;;;;12.38;8.00;;;18.20;81.40;;;;;;5075891;28;20049;-89
2021/07/24 01:19:49;;;;;;;11.45;8.07;;;18.10;81.70;;;;;;5076654;28;20105;-89
2021/07/24 01:22:15;;;;;;;11.75;8.02;;;18.10;81.80;;;;;;5060037;28;20057;-89
2021/07/24 01:24:41;;;;;;;12.00;7.90;;;18.10;81.90;;;;;;5056581;28;20072;-89
2021/07/24 01:27:08;;;;;;;10.15;7.75;;;18.00;82.00;;;;;;5055851;28;20501;-89
2021/07/24 01:29:36;;;;;;;13.10;8.32;;;18.00;82.10;;;;;;5055558;28;20123;-89
2021/07/24 01:32:02;;;;;;;12.15;8.75;;;18.00;82.30;;;;;;5055956;28;20041;-89
2021/07/24 01:34:28;;;;;;;11.38;7.82;;;17.90;82.30;;;;;;5055935;28;20481;-89
2021/07/24 01:36:54;;;;;;;12.20;7.97;;;17.90;82.40;;;;;;5055644;28;20056;-89
2021/07/24 01:39:19;;;;;;;12.65;8.45;;;17.90;82.50;;;;;;5055999;28;20048;-89
2021/07/24 01:41:46;;;;;;;11.38;7.82;;;17.80;82.40;;;;;;5056030;28;20478;-90
2021/07/24 01:44:12;;;;;;;11.82;8.15;;;17.80;82.40;;;;;;5055259;28;20120;-89
2021/07/24 01:46:38;;;;;;;12.32;8.25;;;17.80;82.60;;;;;;5056182;28;20049;-89
2021/07/24 01:49:11;;;;;;;11.85;8.00;;;17.70;82.70;;;;;;5055310;28;20083;-89
2021/07/24 01:54:43;;;;;;;11.63;7.97;;;17.60;82.30;;;;;;5055794;28;20041;-89
2021/07/24 01:57:10;;;;;;;14.60;8.48;;;17.60;82.90;;;;;;5055089;28;20054;-89
2021/07/24 01:59:46;;;;;;;12.43;8.70;;;17.60;83.20;;;;;;5055102;28;20049;-89
2021/07/24 02:02:15;;;;;;;11.80;8.13;;;17.50;83.00;;;;;;5055667;28;20053;-89
2021/07/24 02:04:49;;;;;;;11.93;8.05;;;17.50;83.20;;;;;;5054524;28;20520;-89
2021/07/24 02:07:16;;;;;;;12.43;8.52;;;17.50;83.00;;;;;;5055247;28;20056;-89
2021/07/24 02:09:44;;;;;;;11.75;8.30;;;17.50;82.90;;;;;;5055913;28;20056;-89
2021/07/24 02:12:11;;;;;;;13.93;8.43;;;17.50;83.20;;;;;;5054731;28;20053;-89
2021/07/24 02:14:38;;;;;;;11.68;8.20;;;17.40;83.40;;;;;;5055552;28;20048;-89
2021/07/24 02:17:03;;;;;;;12.93;8.60;;;17.40;83.70;;;;;;5055199;28;20056;-89
2021/07/24 02:19:32;;;;;;;12.63;8.63;;;17.40;83.90;;;;;;5054346;28;20041;-89
2021/07/24 02:21:58;;;;;;;12.82;8.95;;;17.30;83.60;;;;;;5067999;28;20063;-89
2021/07/24 02:24:24;;;;;;;12.30;9.13;;;17.30;83.90;;;;;;5075805;28;20051;-89
2021/07/24 02:26:51;;;;;;;13.65;8.93;;;17.30;84.00;;;;;;5074835;28;20055;-89
2021/07/24 02:29:16;;;;;;;13.30;9.15;;;17.30;84.30;;;;;;5075198;28;20044;-88
2021/07/24 02:31:42;;;;;;;14.43;8.52;;;17.30;84.30;;;;;;5075117;28;20076;-89
2021/07/24 02:34:08;;;;;;;12.40;8.77;;;17.20;84.40;;;;;;5074099;28;20045;-89
2021/07/24 02:36:33;;;;;;;12.00;9.23;;;17.20;84.40;;;;;;5075044;28;20048;-89
2021/07/24 02:38:59;;;;;;;14.20;9.77;;;17.20;84.50;;;;;;5074961;28;20044;-89
2021/07/24 02:41:24;;;;;;;12.07;9.50;;;17.20;83.90;;;;;;5074386;28;20056;-88
2021/07/24 02:43:50;;;;;;;14.45;9.23;;;17.20;84.20;;;;;;5074942;28;20510;-88
2021/07/24 02:46:19;;;;;;;12.45;9.45;;;17.20;84.40;;;;;;5074316;28;20119;-89
2021/07/24 02:48:46;;;;;;;14.93;9.85;;;17.10;84.50;;;;;;5073703;28;20488;-89
2021/07/24 02:51:15;;;;;;;13.77;9.05;;;17.10;84.50;;;;;;5074594;28;20040;-89
2021/07/24 02:53:42;;;;;;;11.35;8.50;;;17.10;84.10;;;;;;5073861;28;20139;-90
2021/07/24 02:56:08;;;;;;;13.85;9.68;;;17.10;84.10;;;;;;5074384;28;20132;-89
2021/07/24 02:58:33;;;;;;;14.27;9.65;;;17.10;84.10;;;;;;5074704;28;20423;-89
2021/07/24 03:01:04;;;;;;;14.32;9.25;;;17.00;83.90;;;;;;5073641;28;20049;-88
2021/07/24 03:03:30;;;;;;;13.18;8.98;;;17.00;84.00;;;;;;5074690;28;20078;-88
2021/07/24 03:05:56;;;;;;;12.98;9.52;;;17.00;83.90;;;;;;5074797;28;20055;-88
2021/07/24 03:08:22;;;;;;;14.73;9.55;;;17.00;83.60;;;;;;5073544;28;20052;-89
2021/07/24 03:10:47;;;;;;;16.15;9.18;;;16.90;83.80;;;;;;5074345;28;20052;-88
2021/07/24 03:13:13;;;;;;;14.05;9.50;;;16.90;84.20;;;;;;5074343;28;20087;-88
2021/07/24 03:15:39;;;;;;;13.25;9.00;;;16.90;84.20;;;;;;5073642;28;20094;-88
2021/07/24 03:18:04;;;;;;;12.38;8.82;;;16.90;84.30;;;;;;5073156;28;20045;-89
2021/07/24 03:20:30;;;;;;;12.27;9.00;;;16.80;84.20;;;;;;5073128;28;20064;-88
2021/07/24 03:22:59;;;;;;;13.35;9.45;;;16.80;84.20;;;;;;5053695;28;20087;-89
2021/07/24 03:25:26;;;;;;;13.13;9.63;;;16.80;84.30;;;;;;5054429;28;20049;-88
2021/07/24 03:27:54;;;;;;;13.43;9.57;;;16.70;84.20;;;;;;5054031;28;20057;-89
2021/07/24 03:30:19;;;;;;;13.77;10.15;;;16.70;84.50;;;;;;5052599;28;20047;-88
2021/07/24 03:32:45;;;;;;;14.52;9.80;;;16.70;84.60;;;;;;5053919;28;20049;-88
2021/07/24 03:35:11;;;;;;;14.15;9.98;;;16.70;84.60;;;;;;5053526;28;20443;-89
2021/07/24 03:37:37;;;;;;;12.73;9.30;;;16.70;84.70;;;;;;5052570;28;20401;-88
2021/07/24 03:40:03;;;;;;;13.85;10.00;;;16.70;85.00;;;;;;5053583;28;20103;-88
2021/07/24 03:42:29;;;;;;;14.02;9.65;;;16.60;84.60;;;;;;5053825;28;20094;-88
2021/07/24 03:44:55;;;;;;;13.07;9.50;;;16.60;84.80;;;;;;5053185;28;20048;-88
2021/07/24 03:47:21;;;;;;;13.60;9.85;;;16.60;84.80;;;;;;5053339;28;20045;-89
2021/07/24 03:49:47;;;;;;;13.35;9.65;;;16.60;84.90;;;;;;5053584;28;20553;-88
2021/07/24 03:52:13;;;;;;;14.73;10.00;;;16.60;84.50;;;;;;5052862;28;20052;-88
2021/07/24 03:54:38;;;;;;;13.80;9.55;;;16.60;84.60;;;;;;5053805;28;20044;-88
2021/07/24 03:57:04;;;;;;;12.85;9.10;;;16.60;84.50;;;;;;5052747;28;20067;-88
2021/07/24 03:59:30;;;;;;;13.60;9.57;;;16.60;84.70;;;;;;5053359;28;20071;-88
2021/07/24 04:01:57;;;;;;;14.45;9.40;;;16.60;85.00;;;;;;5053500;28;20139;-88
2021/07/24 04:04:23;;;;;;;12.98;9.50;;;16.60;84.60;;;;;;5052867;28;20077;-87
2021/07/24 04:06:51;;;;;;;15.98;10.38;;;16.50;84.70;;;;;;5053393;28;20079;-88
2021/07/24 04:09:16;;;;;;;13.38;9.63;;;16.60;85.20;;;;;;5052846;28;20041;-88
2021/07/24 04:11:43;;;;;;;15.43;10.25;;;16.50;85.00;;;;;;5052625;28;20113;-88
2021/07/24 04:14:09;;;;;;;13.40;9.52;;;16.50;84.30;;;;;;5053126;28;20071;-88
2021/07/24 04:16:35;;;;;;;16.95;10.40;;;16.50;84.60;;;;;;5052909;28;20048;-88
2021/07/24 04:19:01;;;;;;;13.07;9.45;;;16.50;84.90;;;;;;5052503;28;20369;-88
2021/07/24 04:21:27;;;;;;;14.38;9.55;;;16.50;84.90;;;;;;5053223;28;20052;-88
2021/07/24 04:23:54;;;;;;;13.63;10.07;;;16.50;84.70;;;;;;5053163;28;20385;-88
2021/07/24 04:26:21;;;;;;;12.98;9.38;;;16.50;84.70;;;;;;5052000;28;20077;-88
2021/07/24 04:28:47;;;;;;;14.27;9.77;;;16.50;83.90;;;;;;5052081;28;20055;-87
2021/07/24 04:31:14;;;;;;;13.73;9.63;;;16.50;84.30;;;;;;5052836;28;20554;-88
2021/07/24 04:33:40;;;;;;;15.68;9.95;;;16.50;84.30;;;;;;5052619;28;20045;-87
2021/07/24 04:36:06;;;;;;;13.15;9.70;;;16.40;84.40;;;;;;5053200;28;20143;-87
2021/07/24 04:38:32;;;;;;;16.42;10.95;;;16.40;84.40;;;;;;5053010;28;20116;-87
2021/07/24 04:40:58;;;;;;;14.63;9.65;;;16.40;84.40;;;;;;5052076;28;20084;-86
2021/07/24 04:43:24;;;;;;;14.48;10.30;;;16.30;83.80;;;;;;5052297;28;20548;-87
2021/07/24 04:45:49;;;;;;;13.55;9.60;;;16.30;84.40;;;;;;5053092;28;20406;-87
2021/07/24 04:48:15;;;;;;;15.40;10.10;;;16.30;84.70;;;;;;5052655;28;20131;-87
2021/07/24 04:50:42;;;;;;;14.00;10.20;;;16.30;84.70;;;;;;5052828;28;20550;-87
2021/07/24 04:53:09;;;;;;;14.60;9.55;;;16.30;84.80;;;;;;5052793;28;20052;-87
2021/07/24 04:55:37;;;;;;;14.88;10.13;;;16.30;84.40;;;;;;5052290;28;20064;-87
2021/07/24 04:58:08;;;;;;;12.68;9.63;;;16.30;84.90;;;;;;5052503;28;20110;-88
2021/07/24 05:00:41;;;;;;;14.20;9.90;;;16.40;85.10;;;;;;5051690;28;20056;-87
2021/07/24 05:03:07;;;;;;;14.38;10.10;;;16.30;85.00;;;;;;5052234;28;20063;-87
2021/07/24 05:05:36;;;;;;;15.55;10.43;;;16.40;84.90;;;;;;5053396;28;20132;-87
2021/07/24 05:08:04;;;;;;;14.82;9.90;;;16.30;84.90;;;;;;5052136;28;20088;-87
2021/07/24 05:10:30;;;;;;;14.95;10.10;;;16.40;85.20;;;;;;5033001;28;20041;-87
2021/07/24 05:12:55;;;;;;;12.77;9.43;;;16.40;85.00;;;;;;5032993;28;20164;-88
2021/07/24 05:15:21;;;;;;;15.90;10.10;;;16.40;85.00;;;;;;5045536;28;20049;-88
2021/07/24 05:17:47;;;;;;;14.70;10.05;;;16.40;85.00;;;;;;5052826;28;20060;-87
2021/07/24 05:20:12;;;;;;;18.23;11.63;;;16.40;85.00;;;;;;5052768;28;20063;-87
2021/07/24 05:22:38;;;;;;;15.32;10.40;;;16.40;85.10;;;;;;5047441;28;20518;-88
2021/07/24 05:25:04;;;;;;;17.00;11.98;;;16.40;85.20;;;;;;5058620;28;20394;-88
2021/07/24 05:27:30;;;;;;;16.05;10.70;;;16.40;85.30;;;;;;5055549;28;20187;-89
2021/07/24 05:29:57;;;;;;;16.45;10.75;;;16.40;85.40;;;;;;5053377;28;20053;-88
2021/07/24 05:32:22;;;;;;;14.55;10.40;;;16.40;85.40;;;;;;5052896;28;20504;-87
2021/07/24 05:34:48;;;;;;;14.50;10.73;;;16.50;85.20;;;;;;5052528;28;20049;-89
2021/07/24 05:37:14;;;;;;;15.95;10.30;;;16.50;85.10;;;;;;5051315;28;20484;-88
2021/07/24 05:39:40;;;;;;;16.80;10.82;;;16.50;85.30;;;;;;5052455;28;20051;-88
2021/07/24 05:42:08;;;;;;;14.65;10.48;;;16.60;85.20;;;;;;5055322;28;20045;-88
2021/07/24 05:44:33;;;;;;;16.08;10.85;;;16.60;85.20;;;;;;5055993;28;20045;-88
2021/07/24 05:47:02;;;;;;;15.75;11.02;;;16.60;85.10;;;;;;5056131;28;20053;-88
2021/07/24 05:49:28;;;;;;;14.88;10.60;;;16.60;85.20;;;;;;5055443;28;20116;-87
2021/07/24 05:51:54;;;;;;;16.40;10.23;;;16.70;85.30;;;;;;5056544;28;20041;-83
2021/07/24 05:54:22;;;;;;;14.73;10.57;;;16.70;84.80;;;;;;5055800;28;20413;-82
2021/07/24 05:56:51;;;;;;;15.45;10.40;;;16.70;85.30;;;;;;5055405;28;20053;-82
2021/07/24 05:59:16;;;;;;;14.85;10.40;;;16.70;85.30;;;;;;5055464;28;20477;-85
2021/07/24 06:01:42;;;;;;;15.48;10.13;;;16.80;85.20;;;;;;5056125;28;20068;-86
2021/07/24 06:04:08;;;;;;;13.82;9.65;;;16.80;85.20;;;;;;5054002;28;20132;-82
2021/07/24 06:06:34;;;;;;;16.90;10.05;;;16.80;85.00;;;;;;5055711;28;20533;-83
2021/07/24 06:09:01;;;;;;;15.43;10.10;;;16.80;84.90;;;;;;5055504;28;20374;-85
2021/07/24 06:11:27;;;;;;;15.70;9.50;;;16.80;84.50;;;;;;5055132;28;20048;-84
2021/07/24 06:13:52;;;;;;;16.40;10.18;;;16.80;84.50;;;;;;5055471;28;20525;-84
2021/07/24 06:16:18;;;;;;;12.85;8.75;;;16.90;84.80;;;;;;5055039;28;20049;-85
2021/07/24 06:18:44;;;;;;;12.85;9.50;;;16.90;84.90;;;;;;5054502;28;20049;-84
2021/07/24 06:21:14;;;;;;;14.15;9.52;;;16.90;84.90;;;;;;5060984;28;20056;-84
2021/07/24 06:23:42;;;;;;;13.65;8.80;;;17.00;85.20;;;;;;5075537;28;20056;-83
2021/07/24 06:26:08;;;;;;;12.32;9.07;;;17.00;85.00;;;;;;5074410;28;20480;-85
2021/07/24 06:28:36;;;;;;;13.82;9.35;;;17.10;85.00;;;;;;5075438;28;20540;-84
2021/07/24 06:31:05;;;;;;;13.85;8.82;;;17.10;84.80;;;;;;5075280;28;20480;-91
2021/07/24 06:33:34;;;;;;;13.52;8.68;;;17.20;84.30;;;;;;5075391;28;20106;-89
2021/07/24 06:36:02;;;;;;;13.98;8.80;;;17.20;84.20;;;;;;5075956;28;20048;-89
2021/07/24 06:38:29;;;;;;;14.23;9.07;;;17.30;84.30;;;;;;5075784;28;20068;-89
2021/07/24 06:40:55;;;;;;;12.02;8.77;;;17.30;84.40;;;;;;5074582;28;20072;-87
2021/07/24 06:43:21;;;;;;;13.10;8.65;;;17.40;84.20;;;;;;5075058;28;20055;-88
2021/07/24 06:45:48;;;;;;;11.77;8.63;;;17.40;84.30;;;;;;5074574;28;20045;-88
2021/07/24 06:48:13;;;;;;;12.68;8.32;;;17.50;84.20;;;;;;5069620;28;20041;-88
2021/07/24 06:50:39;;;;;;;10.85;8.20;;;17.60;84.30;;;;;;5057569;28;20078;-88
2021/07/24 06:53:05;;;;;;;13.13;8.77;;;17.70;84.20;;;;;;5074090;28;20457;-88
2021/07/24 06:55:30;;;;;;;11.65;8.10;;;17.70;84.10;;;;;;5075502;28;20072;-89
2021/07/24 06:58:01;;;;;;;11.35;7.68;;;17.80;84.30;;;;;;5075369;28;20056;-88
2021/07/24 07:00:28;;;;;;;11.70;7.85;;;17.90;84.20;;;;;;5074452;28;20079;-88
2021/07/24 07:02:59;;;;;;;11.07;7.68;;;18.00;83.80;;;;;;5074926;28;20056;-88
2021/07/24 07:05:25;;;;;;;11.85;7.82;;;18.10;83.70;;;;;;5074902;28;20060;-88
2021/07/24 07:07:52;;;;;;;10.57;7.40;;;18.20;83.60;;;;;;5074441;28;20044;-91
2021/07/24 07:10:19;;;;;;;13.02;7.47;;;18.30;83.60;;;;;;5074626;28;20404;-89
2021/07/24 07:12:44;;;;;;;11.15;7.78;;;18.40;83.30;;;;;;5074873;28;20045;-89
2021/07/24 07:15:11;;;;;;;11.77;7.72;;;18.50;83.30;;;;;;5073882;28;20048;-89
2021/07/24 07:17:36;;;;;;;12.05;7.78;;;18.50;83.20;;;;;;5074669;28;20052;-88
2021/07/24 07:20:11;;;;;;;11.20;7.38;;;18.60;83.10;;;;;;5074166;28;20489;-88
2021/07/24 07:22:37;;;;;;;14.38;7.75;;;18.70;82.70;;;;;;5073406;28;20056;-88
2021/07/24 07:25:03;;;;;;;10.20;7.53;;;18.80;82.60;;;;;;5069853;28;20055;-88
2021/07/24 07:27:29;;;;;;;10.85;7.40;;;18.90;82.50;;;;;;5074590;28;20052;-89
2021/07/24 07:29:55;;;;;;;12.02;8.18;;;19.00;82.50;;;;;;5073898;28;20511;-90
2021/07/24 07:32:21;;;;;;;13.23;8.27;;;19.10;82.60;;;;;;5073509;28;20106;-85
2021/07/24 07:34:46;;;;;;;11.20;7.40;;;19.20;82.40;;;;;;5073518;28;20052;-88
2021/07/24 07:37:12;;;;;;;10.20;7.57;;;19.30;82.80;;;;;;5072793;28;20067;-87
2021/07/24 07:39:38;;;;;;;9.82;7.00;;;19.30;82.00;;;;;;5072391;28;20048;-86
2021/07/24 07:42:03;;;;;;;11.85;7.70;;;19.40;81.70;;;;;;5073315;28;20077;-88
2021/07/24 07:44:29;;;;;;;10.40;7.50;;;19.50;81.60;;;;;;5071841;28;20080;-89
2021/07/24 07:46:56;;;;;;;11.20;8.20;;;19.60;81.50;;;;;;5073683;28;20052;-88
2021/07/24 07:49:21;;;;;;;12.02;7.47;;;19.70;81.40;;;;;;5071676;28;20044;-90
2021/07/24 07:51:47;;;;;;;12.98;7.85;;;19.80;81.00;;;;;;5073132;28;20045;-89
2021/07/24 07:54:13;;;;;;;11.38;7.75;;;19.80;81.30;;;;;;5073552;28;20055;-90
2021/07/24 07:56:38;;;;;;;9.50;7.07;;;19.90;81.00;;;;;;5071785;28;20044;-90
2021/07/24 07:59:04;;;;;;;10.50;7.15;;;20.00;80.80;;;;;;5072465;28;20053;-90
2021/07/24 08:01:30;;;;;;;12.07;8.15;;;20.10;80.60;;;;;;5072599;28;20082;-89
2021/07/24 08:03:56;;;;;;;10.93;7.38;;;20.10;80.40;;;;;;5071399;28;20045;-89
2021/07/24 08:06:21;;;;;;;9.27;6.97;;;20.20;80.30;;;;;;5072727;28;20051;-90
2021/07/24 08:08:47;;;;;;;12.13;7.35;;;20.30;80.30;;;;;;5073453;28;20102;-89
2021/07/24 08:11:14;;;;;;;12.60;7.47;;;20.40;80.10;;;;;;5072486;28;20048;-91
2021/07/24 08:13:40;;;;;;;10.13;7.07;;;20.50;80.00;;;;;;5073263;28;20048;-89
2021/07/24 08:16:13;;;;;;;11.10;6.53;;;20.50;80.00;;;;;;5072071;28;20090;-89
2021/07/24 08:18:39;;;;;;;10.80;6.60;;;20.60;79.80;;;;;;5069548;28;20131;-89
2021/07/24 08:21:04;;;;;;;9.80;7.38;;;20.70;79.90;;;;;;5071190;28;20155;-89
2021/07/24 08:23:30;;;;;;;10.77;7.22;;;20.70;79.90;;;;;;5071539;28;20044;-89
2021/07/24 08:25:55;;;;;;;10.50;7.60;;;20.80;80.00;;;;;;5071187;28;20044;-89
2021/07/24 08:28:25;;;;;;;9.93;6.53;;;20.90;79.70;;;;;;5072531;28;20044;-90
2021/07/24 08:30:51;;;;;;;10.35;7.05;;;20.90;79.50;;;;;;5073488;28;20055;-89
2021/07/24 08:33:17;;;;;;;9.60;6.43;;;21.00;79.40;;;;;;5072006;28;20553;-90
2021/07/24 08:35:43;;;;;;;10.48;6.35;;;21.10;79.40;;;;;;5073343;28;20048;-89
2021/07/24 08:38:09;;;;;;;8.70;6.22;;;21.20;79.50;;;;;;5072624;28;20128;-89
2021/07/24 08:40:35;;;;;;;10.63;7.00;;;21.20;79.30;;;;;;5070608;28;20469;-88
2021/07/24 08:43:05;;;;;;;11.23;6.97;;;21.30;78.80;;;;;;5070985;28;20080;-89
2021/07/24 08:45:31;;;;;;;10.30;6.32;;;21.40;78.80;;;;;;5071569;28;20040;-89
2021/07/24 08:48:02;;;;;;;10.65;6.30;;;21.50;78.90;;;;;;5072069;28;20097;-89
2021/07/24 08:50:28;;;;;;;10.75;7.00;;;21.50;78.90;;;;;;5072139;28;20040;-89
2021/07/24 08:52:55;;;;;;;9.57;6.25;;;21.60;78.50;;;;;;5071827;28;20412;-89
2021/07/24 08:55:22;;;;;;;11.45;6.38;;;21.70;78.70;;;;;;5071926;28;20068;-89
2021/07/24 08:57:50;;;;;;;10.35;6.15;;;21.80;78.80;;;;;;5073399;28;20443;-88
2021/07/24 09:00:17;;;;;;;9.43;6.00;;;21.90;78.60;;;;;;5071774;28;20472;-88
2021/07/24 09:02:45;;;;;;;10.00;6.88;;;21.90;78.70;;;;;;5073518;28;20174;-88
2021/07/24 09:05:15;;;;;;;9.57;6.32;;;22.00;77.90;;;;;;5071824;28;20041;-88
2021/07/24 09:07:51;;;;;;;9.52;6.60;;;22.10;77.90;;;;;;5070383;28;20063;-89
2021/07/24 09:10:19;;;;;;;9.35;6.22;;;22.20;77.90;;;;;;5070476;28;20036;-88
2021/07/24 09:12:47;;;;;;;11.18;6.15;;;22.30;78.20;;;;;;5071371;28;20381;-88
2021/07/24 09:15:18;;;;;;;8.85;6.43;;;22.40;78.30;;;;;;5072078;28;20040;-88
2021/07/24 09:17:45;;;;;;;9.00;5.93;;;22.40;77.80;;;;;;5075175;28;20048;-90
2021/07/24 09:20:11;;;;;;;8.77;5.53;;;22.60;78.00;;;;;;5074943;28;20052;-88
2021/07/24 09:22:41;;;;;;;8.93;6.00;;;22.60;77.60;;;;;;5074117;28;20056;-89
2021/07/24 09:25:21;;;;;;;8.65;5.95;;;22.70;77.70;;;;;;5074961;28;20131;-89
2021/07/24 09:27:54;;;;;;;10.10;6.25;;;22.80;77.10;;;;;;5074278;28;20055;-90
2021/07/24 09:30:36;;;;;;;8.88;6.05;;;22.90;77.30;;;;;;5076326;28;20170;-90
2021/07/24 09:33:01;;;;;;;8.75;6.05;;;22.90;77.00;;;;;;5075558;28;20044;-84
2021/07/24 09:35:42;;;;;;;9.23;5.90;;;23.00;76.60;;;;;;5074580;28;20053;-91
2021/07/24 09:38:15;;;;;;;8.27;5.60;;;23.10;76.40;;;;;;5077326;28;20476;-88
2021/07/24 09:40:43;;;;;;;9.52;6.03;;;23.20;77.00;;;;;;5077007;28;20048;-87
2021/07/24 09:43:44;;;;;;;10.85;5.35;;;23.30;75.70;;;;;;5076236;28;20068;-88
2021/07/24 09:46:17;;;;;;;8.57;6.00;;;23.40;76.10;;;;;;5076252;28;20051;-89
2021/07/24 09:48:54;;;;;;;8.25;5.90;;;23.40;76.00;;;;;;5074658;28;20486;-87
2021/07/24 09:51:36;;;;;;;7.60;5.45;;;23.50;75.20;;;;;;5074914;28;20049;-88
2021/07/24 09:54:30;;;;;;;10.68;5.88;;;23.60;75.80;;;;;;5075133;28;20124;-89
2021/07/24 09:56:59;;;;;;;9.50;5.80;;;23.60;75.90;;;;;;5075250;28;20055;-88
2021/07/24 09:59:39;;;;;;;8.50;5.40;;;23.80;76.10;;;;;;5076226;28;20048;-88
2021/07/24 10:02:13;;;;;;;7.45;5.43;;;23.80;76.10;;;;;;5073007;28;20097;-89
2021/07/24 10:04:40;;;;;;;10.15;6.40;;;23.90;76.40;;;;;;5071600;28;20037;-86
2021/07/24 10:07:07;;;;;;;10.52;5.95;;;24.00;75.20;;;;;;5075270;28;20048;-87
2021/07/24 10:09:36;;;;;;;8.02;5.20;;;24.00;75.00;;;;;;5075894;28;20052;-87
2021/07/24 10:12:04;;;;;;;8.25;5.70;;;24.10;75.60;;;;;;5074993;28;20048;-87
2021/07/24 10:14:31;;;;;;;9.55;6.45;;;24.20;75.60;;;;;;5075065;28;20044;-88
2021/07/24 10:17:01;;;;;;;11.75;5.60;;;24.20;75.10;;;;;;5074531;28;20115;-88
2021/07/24 10:19:27;;;;;;;9.32;5.95;;;24.30;75.00;;;;;;5075465;28;20040;-90
2021/07/24 10:21:55;;;;;;;8.02;5.80;;;24.40;75.30;;;;;;5062911;28;20097;-89
2021/07/24 10:24:37;;;;;;;8.10;5.60;;;24.50;75.40;;;;;;5055690;28;20056;-88
2021/07/24 10:27:13;;;;;;;11.05;5.93;;;24.50;75.20;;;;;;5056049;28;20064;-87
2021/07/24 10:30:14;;;;;;;8.90;6.20;;;24.60;75.20;;;;;;5055543;28;20404;-91
2021/07/24 10:32:42;;;;;;;8.82;6.22;;;24.60;75.00;;;;;;4952729;29;20054;-89
2021/07/24 10:35:10;;;;;;;10.25;5.80;;;24.70;74.40;;;;;;5036546;28;20049;-90
2021/07/24 10:37:42;;;;;;;8.18;6.00;;;24.70;74.60;;;;;;5061247;28;20071;-88
2021/07/24 10:40:58;;;;;;;8.07;5.75;;;24.80;74.10;;;;;;5063618;28;20046;-89
2021/07/24 10:44:14;;;;;;;8.60;5.57;;;24.80;74.50;;;;;;5023969;28;20049;-90
2021/07/24 10:46:45;;;;;;;8.88;6.10;;;24.90;74.90;;;;;;5043696;28;20521;-91
2021/07/24 10:49:35;;;;;;;9.10;6.25;;;24.90;75.00;;;;;;5050474;28;20044;-90
2021/07/24 10:52:06;;;;;;;7.30;5.40;;;25.00;74.30;;;;;;5062964;28;20075;-89
2021/07/24 10:58:13;;;;;;;8.77;6.00;;;25.10;74.20;;;;;;5064566;28;20048;-89
2021/07/24 11:00:42;;;;;;;9.85;6.20;;;25.10;73.90;;;;;;5058556;28;20119;-89
2021/07/24 11:03:36;;;;;;;8.70;6.70;;;25.30;73.90;;;;;;5055124;28;20053;-89
2021/07/24 11:06:24;;;;;;;8.88;5.88;;;25.30;73.50;;;;;;5053404;28;20057;-89
2021/07/24 11:09:09;;;;;;;9.13;6.22;;;25.40;73.80;;;;;;5055572;28;20076;-91
2021/07/24 11:11:48;;;;;;;9.68;5.93;;;25.50;73.20;;;;;;5055528;28;20155;-90
2021/07/24 11:14:41;;;;;;;11.82;6.07;;;25.60;73.70;;;;;;5054111;28;20052;-90
2021/07/24 11:17:06;;;;;;;9.23;6.78;;;25.60;73.30;;;;;;5055263;28;20405;-90
2021/07/24 11:19:33;;;;;;;9.00;6.25;;;25.70;72.90;;;;;;5054643;28;20055;-88
2021/07/24 11:22:19;;;;;;;8.70;5.88;;;25.80;73.20;;;;;;5053140;28;20390;-89
2021/07/24 11:24:52;;;;;;;9.07;5.47;;;25.80;72.90;;;;;;5054921;28;20055;-89
2021/07/24 11:27:26;;;;;;;11.77;6.47;;;25.90;72.80;;;;;;5053972;28;20556;-91
2021/07/24 11:30:04;;;;;;;8.82;5.88;;;26.00;72.20;;;;;;5055019;28;20049;-90
2021/07/24 11:32:38;;;;;;;9.25;6.28;;;26.00;71.60;;;;;;5054458;28;20216;-92
2021/07/24 11:35:08;;;;;;;9.40;6.32;;;26.10;71.80;;;;;;5050351;28;20055;-93
2021/07/24 11:37:41;;;;;;;8.60;6.20;;;26.20;71.80;;;;;;5054187;28;20166;-91
2021/07/24 11:40:13;;;;;;;7.88;5.78;;;26.20;71.80;;;;;;5054906;28;20107;-91
2021/07/24 11:42:42;;;;;;;8.98;6.47;;;26.30;72.00;;;;;;5054711;28;20048;-92
2021/07/24 11:45:20;;;;;;;8.50;6.30;;;26.30;71.30;;;;;;5055125;28;20053;-92
2021/07/24 11:47:46;;;;;;;10.63;6.65;;;26.40;71.20;;;;;;5055206;28;20084;-91
2021/07/24 11:50:16;;;;;;;10.07;6.25;;;26.40;71.90;;;;;;5053745;28;20076;-94
2021/07/24 11:52:42;;;;;;;8.05;5.80;;;26.50;71.90;;;;;;5054431;28;20053;-92
2021/07/24 11:55:10;;;;;;;11.40;6.25;;;26.50;71.50;;;;;;5054582;28;20098;-91
2021/07/24 11:57:42;;;;;;;8.98;6.35;;;26.50;71.60;;;;;;5054689;28;20100;-91
2021/07/24 12:00:08;;;;;;;8.43;6.13;;;26.60;71.00;;;;;;5053399;28;20413;-92
2021/07/24 12:02:34;;;;;;;10.48;6.57;;;26.60;70.40;;;;;;5052806;28;20456;-92
2021/07/24 12:04:59;;;;;;;8.23;6.18;;;26.70;69.80;;;;;;5053913;28;20049;-87
2021/07/24 12:07:25;;;;;;;9.63;6.10;;;26.70;70.10;;;;;;5054969;28;20143;-91
2021/07/24 12:09:52;;;;;;;10.30;6.65;;;26.80;69.80;;;;;;5053923;28;20041;-90
2021/07/24 12:12:23;;;;;;;10.88;6.85;;;26.80;69.60;;;;;;5052838;28;20155;-90
2021/07/24 12:14:55;;;;;;;10.93;6.95;;;26.80;68.50;;;;;;5053359;28;20504;-89
2021/07/24 12:17:24;;;;;;;12.18;7.22;;;26.80;67.30;;;;;;5052526;28;20072;-88
2021/07/24 12:19:50;;;;;;;11.38;7.60;;;26.80;67.30;;;;;;5053026;28;20484;-89
2021/07/24 12:22:25;;;;;;;10.93;7.97;;;26.90;67.50;;;;;;5052782;28;20174;-88
2021/07/24 12:24:51;;;;;;;12.07;7.30;;;26.90;66.30;;;;;;5053061;28;20048;-87
2021/07/24 12:27:20;;;;;;;12.13;7.13;;;26.80;66.00;;;;;;5052316;28;20717;-87
2021/07/24 12:29:53;;;;;;;12.60;7.82;;;26.90;65.60;;;;;;5053804;28;20120;-90
2021/07/24 12:32:22;;;;;;;12.85;6.85;;;26.90;66.10;;;;;;5052343;28;20506;-90
2021/07/24 12:34:49;;;;;;;10.25;7.18;;;26.90;66.10;;;;;;5053629;28;20056;-89
2021/07/24 12:37:31;;;;;;;11.32;6.80;;;26.90;67.50;;;;;;5053873;28;20049;-89
2021/07/24 12:40:11;;;;;;;10.73;7.22;;;26.90;66.60;;;;;;5051982;28;20048;-90
2021/07/24 12:42:40;;;;;;;10.57;7.00;;;27.00;66.20;;;;;;5050545;28;20106;-89
2021/07/24 12:45:06;;;;;;;10.73;7.22;;;27.00;65.90;;;;;;5054302;28;20048;-89
2021/07/24 12:47:38;;;;;;;14.63;7.55;;;27.00;66.10;;;;;;5054884;28;20072;-88
2021/07/24 12:50:17;;;;;;;12.23;7.22;;;27.00;66.60;;;;;;5056348;28;20109;-90
2021/07/24 12:52:49;;;;;;;11.10;6.60;;;27.00;65.00;;;;;;5049591;28;20049;-85